createdAt,value
2023-01-10T00:00:33.113Z,5.48
2023-01-10T00:01:33.094Z,5.44
2023-01-10T00:02:33.166Z,5.48
2023-01-10T00:03:33.049Z,5.44
2023-01-10T00:04:33.087Z,5.49
2023-01-10T00:05:33.210Z,5.55
2023-01-10T00:06:33.082Z,5.59
2023-01-10T00:07:33.071Z,5.55
2023-01-10T00:08:33.042Z,5.60
2023-01-10T00:09:33.072Z,5.47
2023-01-10T00:10:33.006Z,5.63
2023-01-10T00:11:33.014Z,5.58
2023-01-10T00:12:33.114Z,5.51
2023-01-10T00:13:32.946Z,5.41
2023-01-10T00:14:32.924Z,5.48
2023-01-10T00:15:32.927Z,5.47
2023-01-10T00:16:32.912Z,5.55
2023-01-10T00:17:32.924Z,5.35
2023-01-10T00:18:32.943Z,5.55
2023-01-10T00:19:32.956Z,5.44
2023-01-10T00:20:32.840Z,5.41
2023-01-10T00:21:33.901Z,5.41
2023-01-10T00:22:32.875Z,5.48
2023-01-10T00:23:32.868Z,5.42
2023-01-10T00:24:32.858Z,5.37
2023-01-10T00:25:33.803Z,5.52
2023-01-10T00:26:32.784Z,5.49
2023-01-10T00:27:32.731Z,5.51
2023-01-10T00:28:32.789Z,5.59
2023-01-10T00:29:32.768Z,5.52
2023-01-10T00:30:32.769Z,5.44
2023-01-10T00:31:32.831Z,5.59
2023-01-10T00:32:32.750Z,5.56
2023-01-10T00:33:32.769Z,5.55
2023-01-10T00:34:32.702Z,5.47
2023-01-10T00:35:32.752Z,5.58
2023-01-10T00:36:32.782Z,5.58
2023-01-10T00:37:32.750Z,5.62
2023-01-10T00:38:32.636Z,5.62
2023-01-10T00:39:32.678Z,5.59
2023-01-10T00:40:32.656Z,5.49
2023-01-10T00:41:32.589Z,5.59
2023-01-10T00:42:32.594Z,5.62
2023-01-10T00:43:32.593Z,5.63
2023-01-10T00:44:32.582Z,5.56
2023-01-10T00:45:32.587Z,5.55
2023-01-10T00:46:32.544Z,5.59
2023-01-10T00:47:32.653Z,5.47
2023-01-10T00:48:32.681Z,5.49
2023-01-10T00:49:32.563Z,5.59
2023-01-10T00:50:32.597Z,5.63
2023-01-10T00:51:32.519Z,5.52
2023-01-10T00:52:32.529Z,5.60
2023-01-10T00:53:32.496Z,5.67
2023-01-10T00:54:32.466Z,5.62
2023-01-10T00:55:32.475Z,5.56
2023-01-10T00:56:32.555Z,5.45
2023-01-10T00:57:32.535Z,5.65
2023-01-10T00:58:32.458Z,5.67
2023-01-10T00:59:32.431Z,5.55
2023-01-10T01:00:32.392Z,5.52
2023-01-10T01:01:32.524Z,5.41
2023-01-10T01:02:32.434Z,5.48
2023-01-10T01:03:32.355Z,5.49
2023-01-10T01:04:32.414Z,5.56
2023-01-10T01:05:32.373Z,5.52
2023-01-10T01:06:32.604Z,5.63
2023-01-10T01:07:32.387Z,5.60
2023-01-10T01:08:32.318Z,5.59
2023-01-10T01:09:32.336Z,5.47
2023-01-10T01:10:32.251Z,5.40
2023-01-10T01:11:32.274Z,5.41
2023-01-10T01:12:32.339Z,5.51
2023-01-10T01:13:32.311Z,5.49
2023-01-10T01:14:32.254Z,5.47
2023-01-10T01:15:32.305Z,5.41
2023-01-10T01:16:32.270Z,5.33
2023-01-10T01:17:32.223Z,5.48
2023-01-10T01:18:32.326Z,5.45
2023-01-10T01:19:32.216Z,5.45
2023-01-10T01:20:32.197Z,5.52
2023-01-10T01:21:32.228Z,5.44
2023-01-10T01:22:32.243Z,5.45
2023-01-10T01:23:32.079Z,5.47
2023-01-10T01:24:32.176Z,5.41
2023-01-10T01:25:32.105Z,5.38
2023-01-10T01:26:32.136Z,5.41
2023-01-10T01:27:32.024Z,5.41
2023-01-10T01:28:32.099Z,5.49
2023-01-10T01:29:42.440Z,5.45
2023-01-10T01:30:33.131Z,5.35
2023-01-10T01:31:32.165Z,5.38
2023-01-10T01:32:32.036Z,5.38
2023-01-10T01:33:32.028Z,5.42
2023-01-10T01:34:32.017Z,5.35
2023-01-10T01:35:32.041Z,5.44
2023-01-10T01:36:32.046Z,5.41
2023-01-10T01:37:32.048Z,5.45
2023-01-10T01:38:32.011Z,5.37
2023-01-10T01:39:32.050Z,5.47
2023-01-10T01:40:31.944Z,5.56
2023-01-10T01:41:31.921Z,5.48
2023-01-10T01:42:31.948Z,5.56
2023-01-10T01:43:31.940Z,5.35
2023-01-10T01:44:31.874Z,5.49
2023-01-10T01:45:31.919Z,5.45
2023-01-10T01:46:31.881Z,5.41
2023-01-10T01:47:31.880Z,5.38
2023-01-10T01:48:31.960Z,5.52
2023-01-10T01:49:31.881Z,5.47
2023-01-10T01:50:31.793Z,5.51
2023-01-10T01:51:31.824Z,5.51
2023-01-10T01:52:31.816Z,5.52
2023-01-10T01:53:31.812Z,5.63
2023-01-10T01:54:31.841Z,5.59
2023-01-10T01:55:32.016Z,5.59
2023-01-10T01:56:31.817Z,5.63
2023-01-10T01:57:31.750Z,5.65
2023-01-10T01:58:31.705Z,5.63
2023-01-10T01:59:31.821Z,5.60
2023-01-10T02:00:31.731Z,5.65
2023-01-10T02:01:31.802Z,5.75
2023-01-10T02:02:31.679Z,5.67
2023-01-10T02:03:31.790Z,5.69
2023-01-10T02:04:31.628Z,5.67
2023-01-10T02:05:31.661Z,5.75
2023-01-10T02:06:31.669Z,5.67
2023-01-10T02:07:31.737Z,5.73
2023-01-10T02:08:31.627Z,5.73
2023-01-10T02:09:31.609Z,5.65
2023-01-10T02:10:31.633Z,5.73
2023-01-10T02:11:31.569Z,5.81
2023-01-10T02:12:31.594Z,5.74
2023-01-10T02:13:31.567Z,5.78
2023-01-10T02:14:31.649Z,5.80
2023-01-10T02:15:31.515Z,5.81
2023-01-10T02:16:31.539Z,5.78
2023-01-10T02:17:31.534Z,5.83
2023-01-10T02:18:31.502Z,5.81
2023-01-10T02:19:31.489Z,5.74
2023-01-10T02:20:32.518Z,5.67
2023-01-10T02:21:31.514Z,5.78
2023-01-10T02:22:31.458Z,5.75
2023-01-10T02:23:31.406Z,5.70
2023-01-10T02:24:31.432Z,5.85
2023-01-10T02:25:31.395Z,5.74
2023-01-10T02:26:31.403Z,5.67
2023-01-10T02:27:31.355Z,5.73
2023-01-10T02:28:31.362Z,5.78
2023-01-10T02:29:31.362Z,5.66
2023-01-10T02:30:31.391Z,5.73
2023-01-10T02:31:31.452Z,5.75
2023-01-10T02:32:43.756Z,5.83
2023-01-10T02:33:33.271Z,5.75
2023-01-10T02:34:31.266Z,5.85
2023-01-10T02:35:31.295Z,5.80
2023-01-10T02:36:31.298Z,5.74
2023-01-10T02:37:31.262Z,5.75
2023-01-10T02:38:31.275Z,5.73
2023-01-10T02:39:31.202Z,5.62
2023-01-10T02:40:31.194Z,5.55
2023-01-10T02:41:31.178Z,5.51
2023-01-10T02:42:31.211Z,5.44
2023-01-10T02:43:31.166Z,5.45
2023-01-10T02:44:31.131Z,5.38
2023-01-10T02:45:31.167Z,5.29
2023-01-10T02:46:31.184Z,5.35
2023-01-10T02:47:31.132Z,5.23
2023-01-10T02:48:31.139Z,5.37
2023-01-10T02:49:31.072Z,5.37
2023-01-10T02:50:31.072Z,5.42
2023-01-10T02:51:31.072Z,5.29
2023-01-10T02:52:31.064Z,5.44
2023-01-10T02:53:31.062Z,5.38
2023-01-10T02:54:31.035Z,5.48
2023-01-10T02:55:31.024Z,5.48
2023-01-10T02:56:31.037Z,5.40
2023-01-10T02:57:31.008Z,5.38
2023-01-10T02:58:30.985Z,5.47
2023-01-10T02:59:31.045Z,5.45
2023-01-10T03:00:30.989Z,5.42
2023-01-10T03:01:31.036Z,5.38
2023-01-10T03:02:30.906Z,5.49
2023-01-10T03:03:30.960Z,5.49
2023-01-10T03:04:30.915Z,5.41
2023-01-10T03:05:30.936Z,5.26
2023-01-10T03:06:30.894Z,5.35
2023-01-10T03:07:30.912Z,5.24
2023-01-10T03:08:30.877Z,5.24
2023-01-10T03:09:32.972Z,5.32
2023-01-10T03:10:30.834Z,5.19
2023-01-10T03:11:30.859Z,5.23
2023-01-10T03:12:30.920Z,5.17
2023-01-10T03:13:30.804Z,5.17
2023-01-10T03:14:30.851Z,5.17
2023-01-10T03:15:30.776Z,5.27
2023-01-10T03:16:30.756Z,5.26
2023-01-10T03:17:30.754Z,5.22
2023-01-10T03:18:30.748Z,5.29
2023-01-10T03:19:30.771Z,5.15
2023-01-10T03:20:30.730Z,5.08
2023-01-10T03:21:30.722Z,5.09
2023-01-10T03:22:30.720Z,5.09
2023-01-10T03:23:31.255Z,5.02
2023-01-10T03:24:30.682Z,5.01
2023-01-10T03:25:30.699Z,4.88
2023-01-10T03:26:30.685Z,4.90
2023-01-10T03:27:30.665Z,4.91
2023-01-10T03:28:30.653Z,4.87
2023-01-10T03:29:31.641Z,4.83
2023-01-10T03:30:30.645Z,4.84
2023-01-10T03:31:30.741Z,4.86
2023-01-10T03:32:30.616Z,4.90
2023-01-10T03:33:30.591Z,4.91
2023-01-10T03:34:30.589Z,4.96
2023-01-10T03:35:30.598Z,4.91
2023-01-10T03:36:30.549Z,4.99
2023-01-10T03:37:30.585Z,4.93
2023-01-10T03:38:30.550Z,5.01
2023-01-10T03:39:30.554Z,5.09
2023-01-10T03:40:30.546Z,5.04
2023-01-10T03:41:30.513Z,5.11
2023-01-10T03:42:30.530Z,5.09
2023-01-10T03:43:30.518Z,5.11
2023-01-10T03:44:30.481Z,5.14
2023-01-10T03:45:30.456Z,5.06
2023-01-10T03:46:30.534Z,5.06
2023-01-10T03:47:30.504Z,5.17
2023-01-10T03:48:30.464Z,5.15
2023-01-10T03:49:30.439Z,5.15
2023-01-10T03:50:30.464Z,5.06
2023-01-10T03:51:30.413Z,5.20
2023-01-10T03:52:30.440Z,5.26
2023-01-10T03:53:30.408Z,5.20
2023-01-10T03:54:30.417Z,5.24
2023-01-10T03:55:30.355Z,5.30
2023-01-10T03:56:30.380Z,5.30
2023-01-10T03:57:30.379Z,5.30
2023-01-10T03:58:30.307Z,5.19
2023-01-10T03:59:30.320Z,5.23
2023-01-10T04:00:30.308Z,5.20
2023-01-10T04:01:30.358Z,5.19
2023-01-10T04:02:30.283Z,5.22
2023-01-10T04:03:30.295Z,5.22
2023-01-10T04:04:30.299Z,5.24
2023-01-10T04:05:30.260Z,5.14
2023-01-10T04:06:30.229Z,5.23
2023-01-10T04:07:30.278Z,5.11
2023-01-10T04:08:30.205Z,5.15
2023-01-10T04:09:30.198Z,5.24
2023-01-10T04:10:30.209Z,5.15
2023-01-10T04:11:30.263Z,5.11
2023-01-10T04:12:30.232Z,5.09
2023-01-10T04:13:30.178Z,5.08
2023-01-10T04:14:30.136Z,5.02
2023-01-10T04:15:30.148Z,5.09
2023-01-10T04:16:30.144Z,5.09
2023-01-10T04:17:30.228Z,5.08
2023-01-10T04:18:30.231Z,5.09
2023-01-10T04:19:30.229Z,5.04
2023-01-10T04:20:30.102Z,5.05
2023-01-10T04:21:30.185Z,4.94
2023-01-10T04:22:30.350Z,4.90
2023-01-10T04:23:30.151Z,4.96
2023-01-10T04:24:30.057Z,4.90
2023-01-10T04:25:30.037Z,4.74
2023-01-10T04:26:30.160Z,4.79
2023-01-10T04:27:30.091Z,4.79
2023-01-10T04:28:30.069Z,4.84
2023-01-10T04:29:30.085Z,4.87
2023-01-10T04:30:30.327Z,4.91
2023-01-10T04:31:30.074Z,4.83
2023-01-10T04:32:30.037Z,4.87
2023-01-10T04:33:30.010Z,4.75
2023-01-10T04:34:30.049Z,4.69
2023-01-10T04:35:29.989Z,4.75
2023-01-10T04:36:29.940Z,4.75
2023-01-10T04:37:29.976Z,4.71
2023-01-10T04:38:29.962Z,4.79
2023-01-10T04:39:29.897Z,4.80
2023-01-10T04:40:29.991Z,4.90
2023-01-10T04:41:29.836Z,4.94
2023-01-10T04:42:29.857Z,5.01
2023-01-10T04:43:29.878Z,4.94
2023-01-10T04:44:29.869Z,4.94
2023-01-10T04:45:29.894Z,5.05
2023-01-10T04:46:29.833Z,5.04
2023-01-10T04:47:29.847Z,5.02
2023-01-10T04:48:29.858Z,5.05
2023-01-10T04:49:29.810Z,4.94
2023-01-10T04:50:29.807Z,5.06
2023-01-10T04:51:29.792Z,5.05
2023-01-10T04:52:29.785Z,4.99
2023-01-10T04:53:29.760Z,4.97
2023-01-10T04:54:29.794Z,5.08
2023-01-10T04:55:29.726Z,4.99
2023-01-10T04:56:29.728Z,5.06
2023-01-10T04:57:29.721Z,5.01
2023-01-10T04:58:29.759Z,5.04
2023-01-10T04:59:29.706Z,5.04
2023-01-10T05:00:29.671Z,5.09
2023-01-10T05:01:29.694Z,5.08
2023-01-10T05:02:29.789Z,5.12
2023-01-10T05:03:29.684Z,5.05
2023-01-10T05:04:29.656Z,4.99
2023-01-10T05:05:29.617Z,5.02
2023-01-10T05:06:29.642Z,4.93
2023-01-10T05:07:29.614Z,4.96
2023-01-10T05:08:29.644Z,4.94
2023-01-10T05:09:29.575Z,4.97
2023-01-10T05:10:29.598Z,4.94
2023-01-10T05:11:30.593Z,4.86
2023-01-10T05:12:29.513Z,4.84
2023-01-10T05:13:29.768Z,4.87
2023-01-10T05:14:29.545Z,4.88
2023-01-10T05:15:29.525Z,4.87
2023-01-10T05:16:30.539Z,4.90
2023-01-10T05:17:29.456Z,4.80
2023-01-10T05:18:29.518Z,4.86
2023-01-10T05:19:29.537Z,4.79
2023-01-10T05:20:29.496Z,4.67
2023-01-10T05:21:29.443Z,4.62
2023-01-10T05:22:29.489Z,4.68
2023-01-10T05:23:29.448Z,4.74
2023-01-10T05:24:29.440Z,4.57
2023-01-10T05:25:29.445Z,4.64
2023-01-10T05:26:29.376Z,4.65
2023-01-10T05:27:29.469Z,4.56
2023-01-10T05:28:29.386Z,4.57
2023-01-10T05:29:30.145Z,4.61
2023-01-10T05:30:29.373Z,4.54
2023-01-10T05:31:29.703Z,4.56
2023-01-10T05:32:29.365Z,4.51
2023-01-10T05:33:29.279Z,4.49
2023-01-10T05:34:29.356Z,4.44
2023-01-10T05:35:29.453Z,4.43
2023-01-10T05:36:29.315Z,4.46
2023-01-10T05:37:29.338Z,4.43
2023-01-10T05:38:29.309Z,4.38
2023-01-10T05:39:29.286Z,4.44
2023-01-10T05:40:29.286Z,4.49
2023-01-10T05:41:29.222Z,4.47
2023-01-10T05:42:29.234Z,4.39
2023-01-10T05:43:29.231Z,4.46
2023-01-10T05:44:29.215Z,4.42
2023-01-10T05:45:29.213Z,4.50
2023-01-10T05:46:29.209Z,4.38
2023-01-10T05:47:29.163Z,4.46
2023-01-10T05:48:29.183Z,4.39
2023-01-10T05:49:29.226Z,4.42
2023-01-10T05:50:29.191Z,4.57
2023-01-10T05:51:29.110Z,4.57
2023-01-10T05:52:29.159Z,4.53
2023-01-10T05:53:29.094Z,4.42
2023-01-10T05:54:29.144Z,4.51
2023-01-10T05:55:29.083Z,4.38
2023-01-10T05:56:29.162Z,4.46
2023-01-10T05:57:29.096Z,4.34
2023-01-10T05:58:29.090Z,4.43
2023-01-10T05:59:29.095Z,4.43
2023-01-10T06:00:29.132Z,4.42
2023-01-10T06:01:29.146Z,4.39
2023-01-10T06:02:29.187Z,4.44
2023-01-10T06:03:29.025Z,4.38
2023-01-10T06:04:29.000Z,4.44
2023-01-10T06:05:28.969Z,4.39
2023-01-10T06:06:29.931Z,4.54
2023-01-10T06:07:29.031Z,4.47
2023-01-10T06:08:28.953Z,4.54
2023-01-10T06:09:28.904Z,4.53
2023-01-10T06:10:28.987Z,4.39
2023-01-10T06:11:28.931Z,4.51
2023-01-10T06:12:28.957Z,4.59
2023-01-10T06:13:28.904Z,4.54
2023-01-10T06:14:29.045Z,4.57
2023-01-10T06:15:28.862Z,4.56
2023-01-10T06:16:28.852Z,4.47
2023-01-10T06:17:28.961Z,4.62
2023-01-10T06:18:28.875Z,4.50
2023-01-10T06:19:28.865Z,4.51
2023-01-10T06:20:28.784Z,4.54
2023-01-10T06:21:28.840Z,4.54
2023-01-10T06:22:28.809Z,4.53
2023-01-10T06:23:28.845Z,4.51
2023-01-10T06:24:28.756Z,4.62
2023-01-10T06:25:28.824Z,4.51
2023-01-10T06:26:28.987Z,4.49
2023-01-10T06:27:28.747Z,4.35
2023-01-10T06:28:28.730Z,4.44
2023-01-10T06:29:28.765Z,4.46
2023-01-10T06:30:28.756Z,4.43
2023-01-10T06:31:29.798Z,4.44
2023-01-10T06:32:28.900Z,4.46
2023-01-10T06:33:28.666Z,4.49
2023-01-10T06:34:28.707Z,4.42
2023-01-10T06:35:28.668Z,4.39
2023-01-10T06:36:28.732Z,4.50
2023-01-10T06:37:28.627Z,4.49
2023-01-10T06:38:28.650Z,4.49
2023-01-10T06:39:28.592Z,4.57
2023-01-10T06:40:28.584Z,4.51
2023-01-10T06:41:28.669Z,4.51
2023-01-10T06:42:28.611Z,4.56
2023-01-10T06:43:28.573Z,4.59
2023-01-10T06:44:28.620Z,4.54
2023-01-10T06:45:28.594Z,4.51
2023-01-10T06:46:28.550Z,4.54
2023-01-10T06:47:28.515Z,4.54
2023-01-10T06:48:28.519Z,4.54
2023-01-10T06:49:28.477Z,4.54
2023-01-10T06:50:28.473Z,4.53
2023-01-10T06:51:28.489Z,4.50
2023-01-10T06:52:28.473Z,4.51
2023-01-10T06:53:28.460Z,4.56
2023-01-10T06:54:28.506Z,4.59
2023-01-10T06:55:28.482Z,4.59
2023-01-10T06:56:28.462Z,4.59
2023-01-10T06:57:28.453Z,4.67
2023-01-10T06:58:28.407Z,4.69
2023-01-10T06:59:28.414Z,4.53
2023-01-10T07:00:28.316Z,4.54
2023-01-10T07:01:28.477Z,4.67
2023-01-10T07:02:28.319Z,4.57
2023-01-10T07:03:28.353Z,4.50
2023-01-10T07:04:28.373Z,4.62
2023-01-10T07:05:28.304Z,4.56
2023-01-10T07:06:28.273Z,4.51
2023-01-10T07:07:29.163Z,4.54
2023-01-10T07:08:28.225Z,4.56
2023-01-10T07:09:28.233Z,4.56
2023-01-10T07:10:28.230Z,4.57
2023-01-10T07:11:28.218Z,4.47
2023-01-10T07:12:28.177Z,4.50
2023-01-10T07:13:28.256Z,4.57
2023-01-10T07:14:28.210Z,4.43
2023-01-10T07:15:28.358Z,4.44
2023-01-10T07:16:28.224Z,4.54
2023-01-10T07:17:28.150Z,4.56
2023-01-10T07:18:28.135Z,4.43
2023-01-10T07:19:28.109Z,4.36
2023-01-10T07:20:28.257Z,4.39
2023-01-10T07:21:28.127Z,4.56
2023-01-10T07:22:28.081Z,4.56
2023-01-10T07:23:28.197Z,4.59
2023-01-10T07:24:28.095Z,4.61
2023-01-10T07:25:28.096Z,4.69
2023-01-10T07:26:28.107Z,4.64
2023-01-10T07:27:28.021Z,4.62
2023-01-10T07:28:28.013Z,4.57
2023-01-10T07:29:28.028Z,4.59
2023-01-10T07:30:27.994Z,4.59
2023-01-10T07:31:28.071Z,4.62
2023-01-10T07:32:28.013Z,4.80
2023-01-10T07:33:28.107Z,4.65
2023-01-10T07:34:27.956Z,4.72
2023-01-10T07:35:27.973Z,4.68
2023-01-10T07:36:27.953Z,4.68
2023-01-10T07:37:27.913Z,4.72
2023-01-10T07:38:27.923Z,4.74
2023-01-10T07:39:27.922Z,4.71
2023-01-10T07:40:27.938Z,4.75
2023-01-10T07:41:27.884Z,4.72
2023-01-10T07:42:28.592Z,4.74
2023-01-10T07:43:27.871Z,4.62
2023-01-10T07:44:27.963Z,4.68
2023-01-10T07:45:27.927Z,4.72
2023-01-10T07:46:27.985Z,4.74
2023-01-10T07:47:27.870Z,4.74
2023-01-10T07:48:27.845Z,4.83
2023-01-10T07:49:27.867Z,4.75
2023-01-10T07:50:27.839Z,4.67
2023-01-10T07:51:27.838Z,4.67
2023-01-10T07:52:27.795Z,4.77
2023-01-10T07:53:27.785Z,4.80
2023-01-10T07:54:27.771Z,4.84
2023-01-10T07:55:27.743Z,4.77
2023-01-10T07:56:27.808Z,4.79
2023-01-10T07:57:27.739Z,4.75
2023-01-10T07:58:27.713Z,4.84
2023-01-10T07:59:27.733Z,4.91
2023-01-10T08:00:27.775Z,4.91
2023-01-10T08:01:27.681Z,4.86
2023-01-10T08:02:27.819Z,4.83
2023-01-10T08:03:27.822Z,4.86
2023-01-10T08:04:27.702Z,4.84
2023-01-10T08:05:27.693Z,4.90
2023-01-10T08:06:27.668Z,4.84
2023-01-10T08:07:27.695Z,4.87
2023-01-10T08:08:27.612Z,4.90
2023-01-10T08:09:27.560Z,4.93
2023-01-10T08:10:27.595Z,4.93
2023-01-10T08:11:27.624Z,4.93
2023-01-10T08:12:27.560Z,4.96
2023-01-10T08:13:27.537Z,5.01
2023-01-10T08:14:27.620Z,5.11
2023-01-10T08:15:27.564Z,5.06
2023-01-10T08:16:27.722Z,5.08
2023-01-10T08:17:27.559Z,5.11
2023-01-10T08:18:27.524Z,5.15
2023-01-10T08:19:27.504Z,5.19
2023-01-10T08:20:28.721Z,5.06
2023-01-10T08:21:27.504Z,5.12
2023-01-10T08:22:27.512Z,5.24
2023-01-10T08:23:27.445Z,5.19
2023-01-10T08:24:27.422Z,5.27
2023-01-10T08:25:27.505Z,5.45
2023-01-10T08:26:27.463Z,5.42
2023-01-10T08:27:28.237Z,5.59
2023-01-10T08:28:27.383Z,5.77
2023-01-10T08:29:27.375Z,5.78
2023-01-10T08:30:27.344Z,5.81
2023-01-10T08:31:27.471Z,5.84
2023-01-10T08:32:27.320Z,5.92
2023-01-10T08:33:27.322Z,5.93
2023-01-10T08:34:29.078Z,5.80
2023-01-10T08:35:27.362Z,5.59
2023-01-10T08:36:27.286Z,5.59
2023-01-10T08:37:27.318Z,5.45
2023-01-10T08:38:27.266Z,5.49
2023-01-10T08:39:27.253Z,5.59
2023-01-10T08:40:27.308Z,5.84
2023-01-10T08:41:27.250Z,5.78
2023-01-10T08:42:27.220Z,5.92
2023-01-10T08:43:27.244Z,5.90
2023-01-10T08:44:27.251Z,5.81
2023-01-10T08:45:27.249Z,5.67
2023-01-10T08:46:27.296Z,5.83
2023-01-10T08:47:27.147Z,5.56
2023-01-10T08:48:27.166Z,5.60
2023-01-10T08:49:27.139Z,5.69
2023-01-10T08:50:27.149Z,5.52
2023-01-10T08:51:27.155Z,5.63
2023-01-10T08:52:27.098Z,5.74
2023-01-10T08:53:27.105Z,5.74
2023-01-10T08:54:27.120Z,5.73
2023-01-10T08:55:27.260Z,5.70
2023-01-10T08:56:27.092Z,5.73
2023-01-10T08:57:27.042Z,5.59
2023-01-10T08:58:27.107Z,5.69
2023-01-10T08:59:27.074Z,5.66
2023-01-10T09:00:27.008Z,5.69
2023-01-10T09:01:27.112Z,5.51
2023-01-10T09:02:26.996Z,5.60
2023-01-10T09:03:26.968Z,5.63
2023-01-10T09:04:26.992Z,5.59
2023-01-10T09:05:28.119Z,5.60
2023-01-10T09:06:27.941Z,5.52
2023-01-10T09:07:26.948Z,5.58
2023-01-10T09:08:26.964Z,5.42
2023-01-10T09:09:27.085Z,5.56
2023-01-10T09:10:26.888Z,5.52
2023-01-10T09:11:26.938Z,5.47
2023-01-10T09:12:26.881Z,5.42
2023-01-10T09:13:26.853Z,5.51
2023-01-10T09:14:26.890Z,5.38
2023-01-10T09:15:26.940Z,5.55
2023-01-10T09:16:26.945Z,5.58
2023-01-10T09:17:26.809Z,5.56
2023-01-10T09:18:26.777Z,5.59
2023-01-10T09:19:26.812Z,5.62
2023-01-10T09:20:26.845Z,5.67
2023-01-10T09:21:26.779Z,5.67
2023-01-10T09:22:26.784Z,5.59
2023-01-10T09:23:26.811Z,5.63
2023-01-10T09:24:26.791Z,5.63
2023-01-10T09:25:26.780Z,5.67
2023-01-10T09:26:26.783Z,5.63
2023-01-10T09:27:26.717Z,5.65
2023-01-10T09:28:26.773Z,5.69
2023-01-10T09:29:26.802Z,5.73
2023-01-10T09:30:26.687Z,5.70
2023-01-10T09:31:26.689Z,5.65
2023-01-10T09:32:26.641Z,5.75
2023-01-10T09:33:30.009Z,5.63
2023-01-10T09:34:28.644Z,5.63
2023-01-10T09:35:26.646Z,5.74
2023-01-10T09:36:26.570Z,5.77
2023-01-10T09:37:26.577Z,5.81
2023-01-10T09:38:26.586Z,5.65
2023-01-10T09:39:26.532Z,5.70
2023-01-10T09:40:26.589Z,5.78
2023-01-10T09:41:26.540Z,5.84
2023-01-10T09:42:26.531Z,5.92
2023-01-10T09:43:27.181Z,5.83
2023-01-10T09:44:26.514Z,5.95
2023-01-10T09:45:27.241Z,5.93
2023-01-10T09:46:26.504Z,5.98
2023-01-10T09:47:26.461Z,6.27
2023-01-10T09:48:26.503Z,6.42
2023-01-10T09:49:26.453Z,6.65
2023-01-10T09:50:26.431Z,6.91
2023-01-10T09:51:26.455Z,7.14
2023-01-10T09:52:26.410Z,7.15
2023-01-10T09:53:26.411Z,7.32
2023-01-10T09:54:26.413Z,7.71
2023-01-10T09:55:26.379Z,8.12
2023-01-10T09:56:26.370Z,8.50
2023-01-10T09:57:26.413Z,8.61
2023-01-10T09:58:26.447Z,8.43
2023-01-10T09:59:26.400Z,8.52
2023-01-10T10:00:26.616Z,8.49
2023-01-10T10:01:26.338Z,8.70
2023-01-10T10:02:26.436Z,8.68
2023-01-10T10:03:26.440Z,8.58
2023-01-10T10:04:26.376Z,8.24
2023-01-10T10:05:26.322Z,8.04
2023-01-10T10:06:26.345Z,7.92
2023-01-10T10:07:26.292Z,7.67
2023-01-10T10:08:26.632Z,7.81
2023-01-10T10:09:26.354Z,8.07
2023-01-10T10:10:26.226Z,8.43
2023-01-10T10:11:26.287Z,8.52
2023-01-10T10:12:27.187Z,8.46
2023-01-10T10:13:27.925Z,8.40
2023-01-10T10:14:27.191Z,8.39
2023-01-10T10:15:26.199Z,8.22
2023-01-10T10:16:26.272Z,7.79
2023-01-10T10:17:26.171Z,7.73
2023-01-10T10:18:27.279Z,7.50
2023-01-10T10:19:26.148Z,7.37
2023-01-10T10:20:26.137Z,7.21
2023-01-10T10:21:26.114Z,7.16
2023-01-10T10:22:26.111Z,7.01
2023-01-10T10:23:26.148Z,7.14
2023-01-10T10:24:26.064Z,7.01
2023-01-10T10:25:26.091Z,6.90
2023-01-10T10:26:26.051Z,6.87
2023-01-10T10:27:25.989Z,6.86
2023-01-10T10:28:26.080Z,6.89
2023-01-10T10:29:25.988Z,6.83
2023-01-10T10:30:25.978Z,6.79
2023-01-10T10:31:25.994Z,6.83
2023-01-10T10:32:25.971Z,6.73
2023-01-10T10:33:25.987Z,6.72
2023-01-10T10:34:25.897Z,6.75
2023-01-10T10:35:25.926Z,6.65
2023-01-10T10:36:25.909Z,6.78
2023-01-10T10:37:26.037Z,6.68
2023-01-10T10:38:25.863Z,6.71
2023-01-10T10:39:25.899Z,6.71
2023-01-10T10:40:25.875Z,6.73
2023-01-10T10:41:25.846Z,6.65
2023-01-10T10:42:25.906Z,6.69
2023-01-10T10:43:25.850Z,6.68
2023-01-10T10:44:25.783Z,6.65
2023-01-10T10:45:25.886Z,6.64
2023-01-10T10:46:25.814Z,6.71
2023-01-10T10:47:25.767Z,6.71
2023-01-10T10:48:25.818Z,6.72
2023-01-10T10:49:25.746Z,6.72
2023-01-10T10:50:25.753Z,6.89
2023-01-10T10:51:25.763Z,6.79
2023-01-10T10:52:25.716Z,6.89
2023-01-10T10:53:26.774Z,6.89
2023-01-10T10:54:25.758Z,6.81
2023-01-10T10:55:25.753Z,6.75
2023-01-10T10:56:25.706Z,6.69
2023-01-10T10:57:25.677Z,6.76
2023-01-10T10:58:25.705Z,6.79
2023-01-10T10:59:25.666Z,6.65
2023-01-10T11:00:25.664Z,6.63
2023-01-10T11:01:26.927Z,6.64
2023-01-10T11:02:26.632Z,6.79
2023-01-10T11:03:25.605Z,6.72
2023-01-10T11:04:25.671Z,6.68
2023-01-10T11:05:25.582Z,6.71
2023-01-10T11:06:25.603Z,6.69
2023-01-10T11:07:25.563Z,6.72
2023-01-10T11:08:25.588Z,6.71
2023-01-10T11:09:25.558Z,6.63
2023-01-10T11:10:25.525Z,6.69
2023-01-10T11:11:25.552Z,6.68
2023-01-10T11:12:25.546Z,6.72
2023-01-10T11:13:25.597Z,6.71
2023-01-10T11:14:25.474Z,6.71
2023-01-10T11:15:25.488Z,6.65
2023-01-10T11:16:25.506Z,6.71
2023-01-10T11:17:25.448Z,6.72
2023-01-10T11:18:25.435Z,6.69
2023-01-10T11:19:25.436Z,6.68
2023-01-10T11:20:25.448Z,6.68
2023-01-10T11:21:25.455Z,6.73
2023-01-10T11:22:26.413Z,6.75
2023-01-10T11:23:25.407Z,6.72
2023-01-10T11:24:25.398Z,6.68
2023-01-10T11:25:25.386Z,6.81
2023-01-10T11:26:25.463Z,6.78
2023-01-10T11:27:25.379Z,6.81
2023-01-10T11:28:25.340Z,6.78
2023-01-10T11:29:25.363Z,6.86
2023-01-10T11:30:25.339Z,6.90
2023-01-10T11:31:25.323Z,6.87
2023-01-10T11:32:25.327Z,6.76
2023-01-10T11:33:25.263Z,6.72
2023-01-10T11:34:25.287Z,6.76
2023-01-10T11:35:25.247Z,6.75
2023-01-10T11:36:25.254Z,6.73
2023-01-10T11:37:25.345Z,6.68
2023-01-10T11:38:25.228Z,6.72
2023-01-10T11:39:25.235Z,6.71
2023-01-10T11:40:25.215Z,6.65
2023-01-10T11:41:25.193Z,6.64
2023-01-10T11:42:25.283Z,6.71
2023-01-10T11:43:25.238Z,6.69
2023-01-10T11:44:25.182Z,6.83
2023-01-10T11:45:25.176Z,6.82
2023-01-10T11:46:25.187Z,6.97
2023-01-10T11:47:26.423Z,6.93
2023-01-10T11:48:47.816Z,6.93
2023-01-10T11:49:26.088Z,6.75
2023-01-10T11:50:25.151Z,6.75
2023-01-10T11:51:25.085Z,6.82
2023-01-10T11:52:25.148Z,6.78
2023-01-10T11:53:25.153Z,6.75
2023-01-10T11:54:25.142Z,6.68
2023-01-10T11:55:25.118Z,6.72
2023-01-10T11:56:25.137Z,6.61
2023-01-10T11:57:25.105Z,6.50
2023-01-10T11:58:25.094Z,6.50
2023-01-10T11:59:25.059Z,6.54
2023-01-10T12:00:24.972Z,6.43
2023-01-10T12:01:25.058Z,6.40
2023-01-10T12:02:25.029Z,6.30
2023-01-10T12:03:25.073Z,6.33
2023-01-10T12:04:25.045Z,6.36
2023-01-10T12:05:24.989Z,6.25
2023-01-10T12:06:24.918Z,6.30
2023-01-10T12:07:24.930Z,6.36
2023-01-10T12:08:24.933Z,6.36
2023-01-10T12:09:24.914Z,6.35
2023-01-10T12:10:24.893Z,6.33
2023-01-10T12:11:24.908Z,6.19
2023-01-10T12:12:24.928Z,6.28
2023-01-10T12:13:24.942Z,6.17
2023-01-10T12:14:24.955Z,6.19
2023-01-10T12:15:24.905Z,6.24
2023-01-10T12:16:24.938Z,6.24
2023-01-10T12:17:24.828Z,6.10
2023-01-10T12:18:24.828Z,6.19
2023-01-10T12:19:24.819Z,6.20
2023-01-10T12:20:24.829Z,6.25
2023-01-10T12:21:24.786Z,6.14
2023-01-10T12:22:24.787Z,6.24
2023-01-10T12:23:24.790Z,6.28
2023-01-10T12:24:24.754Z,6.25
2023-01-10T12:25:24.698Z,6.17
2023-01-10T12:26:24.727Z,6.27
2023-01-10T12:27:24.746Z,6.20
2023-01-10T12:28:24.714Z,6.25
2023-01-10T12:29:24.707Z,6.28
2023-01-10T12:30:24.819Z,6.32
2023-01-10T12:31:24.643Z,6.28
2023-01-10T12:32:24.683Z,6.39
2023-01-10T12:33:24.631Z,6.27
2023-01-10T12:34:24.638Z,6.32
2023-01-10T12:35:24.624Z,6.27
2023-01-10T12:36:24.624Z,6.28
2023-01-10T12:37:24.707Z,6.28
2023-01-10T12:38:24.584Z,6.32
2023-01-10T12:39:24.584Z,6.36
2023-01-10T12:40:24.593Z,6.30
2023-01-10T12:41:24.558Z,6.30
2023-01-10T12:42:24.580Z,6.32
2023-01-10T12:43:24.580Z,6.35
2023-01-10T12:44:24.534Z,6.33
2023-01-10T12:45:24.550Z,6.46
2023-01-10T12:46:41.013Z,6.36
2023-01-10T12:47:26.543Z,6.38
2023-01-10T12:48:31.069Z,6.48
2023-01-10T12:49:24.460Z,6.50
2023-01-10T12:50:24.501Z,6.48
2023-01-10T12:51:24.450Z,6.48
2023-01-10T12:52:24.427Z,6.46
2023-01-10T12:53:24.483Z,6.54
2023-01-10T12:54:24.414Z,6.51
2023-01-10T12:55:24.474Z,6.46
2023-01-10T12:56:24.399Z,6.50
2023-01-10T12:57:24.460Z,6.43
2023-01-10T12:58:24.381Z,6.54
2023-01-10T12:59:36.695Z,6.32
2023-01-10T13:00:26.359Z,6.46
2023-01-10T13:01:24.490Z,6.42
2023-01-10T13:02:24.469Z,6.38
2023-01-10T13:03:24.345Z,6.46
2023-01-10T13:04:24.352Z,6.55
2023-01-10T13:05:24.329Z,6.48
2023-01-10T13:06:24.236Z,6.51
2023-01-10T13:07:24.302Z,6.51
2023-01-10T13:08:24.244Z,6.50
2023-01-10T13:09:24.205Z,6.50
2023-01-10T13:10:24.289Z,6.48
2023-01-10T13:11:24.271Z,6.45
2023-01-10T13:12:24.222Z,6.45
2023-01-10T13:13:24.223Z,6.46
2023-01-10T13:14:24.225Z,6.54
2023-01-10T13:15:25.174Z,6.51
2023-01-10T13:16:24.117Z,6.48
2023-01-10T13:17:24.296Z,6.38
2023-01-10T13:18:24.194Z,6.51